sensor_id;sensor_type;location;lat;lon;timestamp;P1;durP1;ratioP1;P2;durP2;ratioP2
67986;SDS011;54767;53.800;15.956;2023-04-24T00:02:27;5.20;;;4.20;;
67986;SDS011;54767;53.800;15.956;2023-04-24T00:04:55;4.40;;;3.70;;
67986;SDS011;54767;53.800;15.956;2023-04-24T00:07:24;5.30;;;3.60;;
67986;SDS011;54767;53.800;15.956;2023-04-24T00:09:52;4.10;;;3.40;;
67986;SDS011;54767;53.800;15.956;2023-04-24T00:12:20;3.20;;;2.80;;
67986;SDS011;54767;53.800;15.956;2023-04-24T00:14:48;3.60;;;3.00;;
67986;SDS011;54767;53.800;15.956;2023-04-24T00:17:16;3.90;;;2.90;;
67986;SDS011;54767;53.800;15.956;2023-04-24T00:19:47;3.30;;;3.00;;
67986;SDS011;54767;53.800;15.956;2023-04-24T00:22:16;4.00;;;3.20;;
67986;SDS011;54767;53.800;15.956;2023-04-24T00:24:44;3.40;;;3.00;;
67986;SDS011;54767;53.800;15.956;2023-04-24T00:27:13;3.10;;;2.80;;
67986;SDS011;54767;53.800;15.956;2023-04-24T00:29:41;3.30;;;2.80;;
67986;SDS011;54767;53.800;15.956;2023-04-24T00:32:09;3.10;;;2.70;;
67986;SDS011;54767;53.800;15.956;2023-04-24T00:34:37;3.20;;;2.70;;
67986;SDS011;54767;53.800;15.956;2023-04-24T00:37:05;3.20;;;2.90;;
67986;SDS011;54767;53.800;15.956;2023-04-24T00:39:33;3.50;;;2.90;;
67986;SDS011;54767;53.800;15.956;2023-04-24T00:42:02;3.90;;;3.20;;
67986;SDS011;54767;53.800;15.956;2023-04-24T00:44:30;3.80;;;3.40;;
67986;SDS011;54767;53.800;15.956;2023-04-24T00:46:58;4.10;;;3.70;;
67986;SDS011;54767;53.800;15.956;2023-04-24T00:49:27;3.40;;;3.00;;
67986;SDS011;54767;53.800;15.956;2023-04-24T00:51:55;3.20;;;2.90;;
67986;SDS011;54767;53.800;15.956;2023-04-24T00:54:24;3.40;;;3.10;;
67986;SDS011;54767;53.800;15.956;2023-04-24T00:56:52;3.80;;;3.20;;
67986;SDS011;54767;53.800;15.956;2023-04-24T00:59:20;4.10;;;3.40;;
67986;SDS011;54767;53.800;15.956;2023-04-24T01:01:48;5.30;;;3.80;;
67986;SDS011;54767;53.800;15.956;2023-04-24T01:04:17;4.50;;;3.70;;
67986;SDS011;54767;53.800;15.956;2023-04-24T01:06:45;4.20;;;3.40;;
67986;SDS011;54767;53.800;15.956;2023-04-24T01:09:14;4.80;;;3.30;;
67986;SDS011;54767;53.800;15.956;2023-04-24T01:11:43;4.40;;;3.70;;
67986;SDS011;54767;53.800;15.956;2023-04-24T01:14:11;4.40;;;3.40;;
67986;SDS011;54767;53.800;15.956;2023-04-24T01:16:39;4.20;;;3.30;;
67986;SDS011;54767;53.800;15.956;2023-04-24T01:19:09;4.10;;;3.50;;
67986;SDS011;54767;53.800;15.956;2023-04-24T01:21:38;3.80;;;3.40;;
67986;SDS011;54767;53.800;15.956;2023-04-24T01:24:06;3.80;;;3.40;;
67986;SDS011;54767;53.800;15.956;2023-04-24T01:26:35;4.00;;;3.60;;
67986;SDS011;54767;53.800;15.956;2023-04-24T01:29:03;4.00;;;3.60;;
67986;SDS011;54767;53.800;15.956;2023-04-24T01:31:31;4.10;;;3.70;;
67986;SDS011;54767;53.800;15.956;2023-04-24T01:34:00;3.80;;;4.10;;
67986;SDS011;54767;53.800;15.956;2023-04-24T01:36:29;3.90;;;3.40;;
67986;SDS011;54767;53.800;15.956;2023-04-24T01:38:59;4.20;;;3.80;;
67986;SDS011;54767;53.800;15.956;2023-04-24T01:41:27;4.50;;;3.90;;
67986;SDS011;54767;53.800;15.956;2023-04-24T01:43:56;3.70;;;3.40;;
67986;SDS011;54767;53.800;15.956;2023-04-24T01:46:25;4.20;;;3.70;;
67986;SDS011;54767;53.800;15.956;2023-04-24T01:48:53;4.00;;;3.50;;
67986;SDS011;54767;53.800;15.956;2023-04-24T01:51:22;6.40;;;3.80;;
67986;SDS011;54767;53.800;15.956;2023-04-24T01:53:50;5.50;;;3.70;;
67986;SDS011;54767;53.800;15.956;2023-04-24T01:56:22;5.60;;;3.60;;
67986;SDS011;54767;53.800;15.956;2023-04-24T01:58:50;4.50;;;3.70;;
67986;SDS011;54767;53.800;15.956;2023-04-24T02:01:21;5.60;;;3.90;;
67986;SDS011;54767;53.800;15.956;2023-04-24T02:03:51;4.30;;;3.60;;
67986;SDS011;54767;53.800;15.956;2023-04-24T02:06:20;5.90;;;3.90;;
67986;SDS011;54767;53.800;15.956;2023-04-24T02:08:48;4.30;;;3.60;;
67986;SDS011;54767;53.800;15.956;2023-04-24T02:11:16;4.60;;;3.60;;
67986;SDS011;54767;53.800;15.956;2023-04-24T02:13:44;4.90;;;3.90;;
67986;SDS011;54767;53.800;15.956;2023-04-24T02:16:12;4.50;;;3.60;;
67986;SDS011;54767;53.800;15.956;2023-04-24T02:18:40;4.50;;;3.50;;
67986;SDS011;54767;53.800;15.956;2023-04-24T02:21:09;5.50;;;3.60;;
67986;SDS011;54767;53.800;15.956;2023-04-24T02:23:37;4.00;;;3.60;;
67986;SDS011;54767;53.800;15.956;2023-04-24T02:26:05;4.30;;;3.60;;
67986;SDS011;54767;53.800;15.956;2023-04-24T02:28:34;4.80;;;3.90;;
67986;SDS011;54767;53.800;15.956;2023-04-24T02:31:02;5.10;;;4.00;;
67986;SDS011;54767;53.800;15.956;2023-04-24T02:33:30;4.20;;;3.50;;
67986;SDS011;54767;53.800;15.956;2023-04-24T02:35:58;4.10;;;3.70;;
67986;SDS011;54767;53.800;15.956;2023-04-24T02:38:27;6.00;;;3.70;;
67986;SDS011;54767;53.800;15.956;2023-04-24T02:40:55;4.70;;;4.00;;
67986;SDS011;54767;53.800;15.956;2023-04-24T02:43:23;5.70;;;3.90;;
67986;SDS011;54767;53.800;15.956;2023-04-24T02:45:51;5.00;;;3.90;;
67986;SDS011;54767;53.800;15.956;2023-04-24T02:48:19;5.20;;;4.40;;
67986;SDS011;54767;53.800;15.956;2023-04-24T02:50:48;6.50;;;4.10;;
67986;SDS011;54767;53.800;15.956;2023-04-24T02:53:16;4.70;;;4.20;;
67986;SDS011;54767;53.800;15.956;2023-04-24T02:55:45;5.90;;;4.40;;
67986;SDS011;54767;53.800;15.956;2023-04-24T02:58:13;7.30;;;4.90;;
67986;SDS011;54767;53.800;15.956;2023-04-24T03:00:41;7.20;;;5.80;;
67986;SDS011;54767;53.800;15.956;2023-04-24T03:03:11;9.30;;;6.80;;
67986;SDS011;54767;53.800;15.956;2023-04-24T03:05:39;10.20;;;7.30;;
67986;SDS011;54767;53.800;15.956;2023-04-24T03:08:07;10.60;;;7.30;;
67986;SDS011;54767;53.800;15.956;2023-04-24T03:10:35;10.00;;;7.10;;
67986;SDS011;54767;53.800;15.956;2023-04-24T03:13:03;10.70;;;7.00;;
67986;SDS011;54767;53.800;15.956;2023-04-24T03:15:31;10.50;;;6.70;;
67986;SDS011;54767;53.800;15.956;2023-04-24T03:18:00;8.90;;;6.10;;
67986;SDS011;54767;53.800;15.956;2023-04-24T03:20:28;9.90;;;6.50;;
67986;SDS011;54767;53.800;15.956;2023-04-24T03:22:56;10.10;;;6.40;;
67986;SDS011;54767;53.800;15.956;2023-04-24T03:25:24;14.20;;;6.20;;
67986;SDS011;54767;53.800;15.956;2023-04-24T03:27:53;11.90;;;5.90;;
67986;SDS011;54767;53.800;15.956;2023-04-24T03:30:22;11.50;;;5.20;;
67986;SDS011;54767;53.800;15.956;2023-04-24T03:32:50;11.60;;;4.80;;
67986;SDS011;54767;53.800;15.956;2023-04-24T03:35:18;8.60;;;5.20;;
67986;SDS011;54767;53.800;15.956;2023-04-24T03:37:46;7.80;;;5.70;;
67986;SDS011;54767;53.800;15.956;2023-04-24T03:40:14;7.10;;;4.60;;
67986;SDS011;54767;53.800;15.956;2023-04-24T03:42:43;6.90;;;4.80;;
67986;SDS011;54767;53.800;15.956;2023-04-24T03:45:11;6.20;;;4.70;;
67986;SDS011;54767;53.800;15.956;2023-04-24T03:47:39;6.30;;;4.70;;
67986;SDS011;54767;53.800;15.956;2023-04-24T03:50:07;6.40;;;4.60;;
67986;SDS011;54767;53.800;15.956;2023-04-24T03:52:38;5.60;;;4.20;;
67986;SDS011;54767;53.800;15.956;2023-04-24T03:55:06;6.60;;;4.70;;
67986;SDS011;54767;53.800;15.956;2023-04-24T03:57:35;5.50;;;4.60;;
67986;SDS011;54767;53.800;15.956;2023-04-24T04:00:03;7.60;;;4.90;;
67986;SDS011;54767;53.800;15.956;2023-04-24T04:02:32;5.90;;;4.60;;
67986;SDS011;54767;53.800;15.956;2023-04-24T04:05:00;5.80;;;4.60;;
67986;SDS011;54767;53.800;15.956;2023-04-24T04:07:29;6.40;;;4.50;;
67986;SDS011;54767;53.800;15.956;2023-04-24T04:09:57;5.50;;;4.70;;
67986;SDS011;54767;53.800;15.956;2023-04-24T04:12:26;6.40;;;4.80;;
67986;SDS011;54767;53.800;15.956;2023-04-24T04:14:54;5.80;;;4.60;;
67986;SDS011;54767;53.800;15.956;2023-04-24T04:17:22;4.80;;;4.30;;
67986;SDS011;54767;53.800;15.956;2023-04-24T04:19:50;6.90;;;4.70;;
67986;SDS011;54767;53.800;15.956;2023-04-24T04:22:18;7.60;;;5.40;;
67986;SDS011;54767;53.800;15.956;2023-04-24T04:24:46;6.90;;;5.20;;
67986;SDS011;54767;53.800;15.956;2023-04-24T04:27:14;8.00;;;5.30;;
67986;SDS011;54767;53.800;15.956;2023-04-24T04:29:44;8.10;;;5.80;;
67986;SDS011;54767;53.800;15.956;2023-04-24T04:32:12;7.70;;;5.40;;
67986;SDS011;54767;53.800;15.956;2023-04-24T04:34:41;8.10;;;5.50;;
67986;SDS011;54767;53.800;15.956;2023-04-24T04:37:10;7.00;;;5.00;;
67986;SDS011;54767;53.800;15.956;2023-04-24T04:39:38;7.30;;;5.00;;
67986;SDS011;54767;53.800;15.956;2023-04-24T04:42:07;8.10;;;5.80;;
67986;SDS011;54767;53.800;15.956;2023-04-24T04:44:35;7.60;;;5.40;;
67986;SDS011;54767;53.800;15.956;2023-04-24T04:47:03;7.90;;;5.40;;
67986;SDS011;54767;53.800;15.956;2023-04-24T04:49:33;8.40;;;5.40;;
67986;SDS011;54767;53.800;15.956;2023-04-24T04:52:02;7.60;;;5.20;;
67986;SDS011;54767;53.800;15.956;2023-04-24T04:54:30;6.90;;;5.10;;
67986;SDS011;54767;53.800;15.956;2023-04-24T04:56:58;8.00;;;5.50;;
67986;SDS011;54767;53.800;15.956;2023-04-24T04:59:30;6.50;;;5.20;;
67986;SDS011;54767;53.800;15.956;2023-04-24T05:01:58;8.00;;;5.60;;
67986;SDS011;54767;53.800;15.956;2023-04-24T05:04:27;9.30;;;5.80;;
67986;SDS011;54767;53.800;15.956;2023-04-24T05:06:56;8.50;;;5.50;;
67986;SDS011;54767;53.800;15.956;2023-04-24T05:09:24;9.60;;;6.10;;
67986;SDS011;54767;53.800;15.956;2023-04-24T05:11:55;8.70;;;5.90;;
67986;SDS011;54767;53.800;15.956;2023-04-24T05:14:23;8.30;;;5.80;;
67986;SDS011;54767;53.800;15.956;2023-04-24T05:16:51;8.90;;;6.10;;
67986;SDS011;54767;53.800;15.956;2023-04-24T05:19:20;8.90;;;6.00;;
67986;SDS011;54767;53.800;15.956;2023-04-24T05:21:48;10.10;;;6.10;;
67986;SDS011;54767;53.800;15.956;2023-04-24T05:24:16;8.90;;;6.30;;
67986;SDS011;54767;53.800;15.956;2023-04-24T05:26:44;10.70;;;7.00;;
67986;SDS011;54767;53.800;15.956;2023-04-24T05:29:12;9.10;;;6.60;;
67986;SDS011;54767;53.800;15.956;2023-04-24T05:31:40;9.10;;;6.80;;
67986;SDS011;54767;53.800;15.956;2023-04-24T05:34:08;11.20;;;7.50;;
67986;SDS011;54767;53.800;15.956;2023-04-24T05:36:37;9.40;;;6.70;;
67986;SDS011;54767;53.800;15.956;2023-04-24T05:39:05;11.40;;;7.50;;
67986;SDS011;54767;53.800;15.956;2023-04-24T05:41:35;10.30;;;7.20;;
67986;SDS011;54767;53.800;15.956;2023-04-24T05:44:03;10.40;;;6.90;;
67986;SDS011;54767;53.800;15.956;2023-04-24T05:46:31;10.50;;;7.10;;
67986;SDS011;54767;53.800;15.956;2023-04-24T05:48:59;11.00;;;7.00;;
67986;SDS011;54767;53.800;15.956;2023-04-24T05:51:27;11.40;;;7.10;;
67986;SDS011;54767;53.800;15.956;2023-04-24T05:53:56;10.50;;;7.60;;
67986;SDS011;54767;53.800;15.956;2023-04-24T05:56:24;11.30;;;7.80;;
67986;SDS011;54767;53.800;15.956;2023-04-24T05:58:53;10.60;;;7.30;;
67986;SDS011;54767;53.800;15.956;2023-04-24T06:01:21;10.70;;;7.00;;
67986;SDS011;54767;53.800;15.956;2023-04-24T06:03:49;11.10;;;7.80;;
67986;SDS011;54767;53.800;15.956;2023-04-24T06:06:18;9.70;;;7.30;;
67986;SDS011;54767;53.800;15.956;2023-04-24T06:08:47;11.60;;;7.40;;
67986;SDS011;54767;53.800;15.956;2023-04-24T06:11:15;12.40;;;8.00;;
67986;SDS011;54767;53.800;15.956;2023-04-24T06:13:43;10.80;;;8.20;;
67986;SDS011;54767;53.800;15.956;2023-04-24T06:16:11;10.10;;;7.40;;
67986;SDS011;54767;53.800;15.956;2023-04-24T06:18:39;13.20;;;8.40;;
67986;SDS011;54767;53.800;15.956;2023-04-24T06:21:08;11.60;;;7.90;;
67986;SDS011;54767;53.800;15.956;2023-04-24T06:23:36;11.30;;;8.10;;
67986;SDS011;54767;53.800;15.956;2023-04-24T06:26:04;11.70;;;8.00;;
67986;SDS011;54767;53.800;15.956;2023-04-24T06:28:32;12.50;;;8.70;;
67986;SDS011;54767;53.800;15.956;2023-04-24T06:31:00;12.70;;;8.60;;
67986;SDS011;54767;53.800;15.956;2023-04-24T06:33:29;12.70;;;8.80;;
67986;SDS011;54767;53.800;15.956;2023-04-24T06:35:57;13.30;;;9.20;;
67986;SDS011;54767;53.800;15.956;2023-04-24T06:38:25;14.30;;;9.00;;
67986;SDS011;54767;53.800;15.956;2023-04-24T06:40:53;12.60;;;9.30;;
67986;SDS011;54767;53.800;15.956;2023-04-24T06:43:21;12.10;;;9.20;;
67986;SDS011;54767;53.800;15.956;2023-04-24T06:45:49;14.50;;;9.80;;
67986;SDS011;54767;53.800;15.956;2023-04-24T06:48:17;13.20;;;9.40;;
67986;SDS011;54767;53.800;15.956;2023-04-24T06:50:46;12.30;;;9.20;;
67986;SDS011;54767;53.800;15.956;2023-04-24T06:53:14;14.20;;;9.40;;
67986;SDS011;54767;53.800;15.956;2023-04-24T06:55:43;12.70;;;9.00;;
67986;SDS011;54767;53.800;15.956;2023-04-24T06:58:12;12.10;;;8.80;;
67986;SDS011;54767;53.800;15.956;2023-04-24T07:00:40;10.90;;;8.10;;
67986;SDS011;54767;53.800;15.956;2023-04-24T07:03:09;11.60;;;8.80;;
67986;SDS011;54767;53.800;15.956;2023-04-24T07:05:38;11.50;;;8.50;;
67986;SDS011;54767;53.800;15.956;2023-04-24T07:08:06;11.50;;;8.20;;
67986;SDS011;54767;53.800;15.956;2023-04-24T07:10:34;13.10;;;9.20;;
67986;SDS011;54767;53.800;15.956;2023-04-24T07:13:03;12.90;;;8.70;;
67986;SDS011;54767;53.800;15.956;2023-04-24T07:15:34;11.80;;;8.70;;
67986;SDS011;54767;53.800;15.956;2023-04-24T07:18:02;11.50;;;8.30;;
67986;SDS011;54767;53.800;15.956;2023-04-24T07:20:32;10.60;;;7.90;;
67986;SDS011;54767;53.800;15.956;2023-04-24T07:23:01;13.10;;;8.40;;
67986;SDS011;54767;53.800;15.956;2023-04-24T07:25:30;10.30;;;8.10;;
67986;SDS011;54767;53.800;15.956;2023-04-24T07:27:59;12.20;;;8.10;;
67986;SDS011;54767;53.800;15.956;2023-04-24T07:30:27;11.20;;;8.30;;
67986;SDS011;54767;53.800;15.956;2023-04-24T07:33:00;11.70;;;8.60;;
67986;SDS011;54767;53.800;15.956;2023-04-24T07:35:28;10.50;;;8.30;;
67986;SDS011;54767;53.800;15.956;2023-04-24T07:37:56;11.20;;;8.30;;
67986;SDS011;54767;53.800;15.956;2023-04-24T07:40:25;11.30;;;8.40;;
67986;SDS011;54767;53.800;15.956;2023-04-24T07:42:53;11.40;;;7.70;;
67986;SDS011;54767;53.800;15.956;2023-04-24T07:45:21;11.90;;;8.30;;
67986;SDS011;54767;53.800;15.956;2023-04-24T07:47:51;10.90;;;8.40;;
67986;SDS011;54767;53.800;15.956;2023-04-24T07:50:19;10.80;;;8.00;;
67986;SDS011;54767;53.800;15.956;2023-04-24T07:52:48;11.40;;;8.30;;
67986;SDS011;54767;53.800;15.956;2023-04-24T07:55:16;9.40;;;7.60;;
67986;SDS011;54767;53.800;15.956;2023-04-24T07:57:44;10.60;;;7.90;;
67986;SDS011;54767;53.800;15.956;2023-04-24T08:03:06;12.80;;;7.70;;
67986;SDS011;54767;53.800;15.956;2023-04-24T08:05:34;10.80;;;7.90;;
67986;SDS011;54767;53.800;15.956;2023-04-24T08:08:06;9.60;;;7.70;;
67986;SDS011;54767;53.800;15.956;2023-04-24T08:10:34;9.60;;;7.40;;
67986;SDS011;54767;53.800;15.956;2023-04-24T08:13:03;9.20;;;7.40;;
67986;SDS011;54767;53.800;15.956;2023-04-24T08:15:31;12.50;;;8.60;;
67986;SDS011;54767;53.800;15.956;2023-04-24T08:17:59;10.60;;;7.70;;
67986;SDS011;54767;53.800;15.956;2023-04-24T08:20:27;10.80;;;8.30;;
67986;SDS011;54767;53.800;15.956;2023-04-24T08:22:55;10.30;;;7.70;;
67986;SDS011;54767;53.800;15.956;2023-04-24T08:25:24;11.30;;;7.90;;
67986;SDS011;54767;53.800;15.956;2023-04-24T08:27:52;10.00;;;7.80;;
67986;SDS011;54767;53.800;15.956;2023-04-24T08:30:21;9.70;;;7.60;;
67986;SDS011;54767;53.800;15.956;2023-04-24T08:32:50;10.20;;;7.80;;
67986;SDS011;54767;53.800;15.956;2023-04-24T08:35:18;9.40;;;7.50;;
67986;SDS011;54767;53.800;15.956;2023-04-24T08:37:46;9.90;;;8.00;;
67986;SDS011;54767;53.800;15.956;2023-04-24T08:59:26;8.90;;;6.40;;
67986;SDS011;54767;53.800;15.956;2023-04-24T09:19:20;7.10;;;5.40;;
67986;SDS011;54767;53.800;15.956;2023-04-24T09:25:45;6.00;;;5.40;;
67986;SDS011;54767;53.800;15.956;2023-04-24T09:29:26;5.40;;;4.90;;
67986;SDS011;54767;53.800;15.956;2023-04-24T09:31:54;5.00;;;4.40;;
67986;SDS011;54767;53.800;15.956;2023-04-24T09:34:28;7.00;;;4.90;;
67986;SDS011;54767;53.800;15.956;2023-04-24T09:37:56;5.30;;;3.70;;
67986;SDS011;54767;53.800;15.956;2023-04-24T09:41:02;4.00;;;3.30;;
67986;SDS011;54767;53.800;15.956;2023-04-24T09:43:31;5.30;;;3.50;;
67986;SDS011;54767;53.800;15.956;2023-04-24T09:45:58;4.90;;;4.20;;
67986;SDS011;54767;53.800;15.956;2023-04-24T09:48:34;4.30;;;3.90;;
67986;SDS011;54767;53.800;15.956;2023-04-24T09:51:04;7.80;;;4.40;;
67986;SDS011;54767;53.800;15.956;2023-04-24T09:53:38;5.70;;;4.30;;
67986;SDS011;54767;53.800;15.956;2023-04-24T09:56:09;5.60;;;4.40;;
67986;SDS011;54767;53.800;15.956;2023-04-24T09:58:36;4.90;;;4.30;;
67986;SDS011;54767;53.800;15.956;2023-04-24T10:01:04;6.10;;;4.10;;
67986;SDS011;54767;53.800;15.956;2023-04-24T10:03:32;4.80;;;4.10;;
67986;SDS011;54767;53.800;15.956;2023-04-24T10:06:01;5.80;;;4.40;;
67986;SDS011;54767;53.800;15.956;2023-04-24T10:08:35;5.90;;;4.00;;
67986;SDS011;54767;53.800;15.956;2023-04-24T10:11:03;7.20;;;3.90;;
67986;SDS011;54767;53.800;15.956;2023-04-24T10:13:30;5.50;;;4.40;;
67986;SDS011;54767;53.800;15.956;2023-04-24T10:15:59;5.50;;;4.50;;
67986;SDS011;54767;53.800;15.956;2023-04-24T10:18:27;15.80;;;5.50;;
67986;SDS011;54767;53.800;15.956;2023-04-24T10:20:54;12.40;;;4.90;;
67986;SDS011;54767;53.800;15.956;2023-04-24T10:23:21;4.20;;;3.80;;
67986;SDS011;54767;53.800;15.956;2023-04-24T10:25:50;6.10;;;4.10;;
67986;SDS011;54767;53.800;15.956;2023-04-24T10:28:27;9.70;;;5.30;;
67986;SDS011;54767;53.800;15.956;2023-04-24T10:30:55;12.40;;;7.20;;
67986;SDS011;54767;53.800;15.956;2023-04-24T10:33:23;11.40;;;7.50;;
67986;SDS011;54767;53.800;15.956;2023-04-24T10:35:50;10.90;;;7.60;;
67986;SDS011;54767;53.800;15.956;2023-04-24T10:38:22;12.00;;;9.00;;
67986;SDS011;54767;53.800;15.956;2023-04-24T10:41:06;13.20;;;8.90;;
67986;SDS011;54767;53.800;15.956;2023-04-24T10:43:42;11.00;;;8.90;;
67986;SDS011;54767;53.800;15.956;2023-04-24T10:46:10;13.00;;;9.00;;
67986;SDS011;54767;53.800;15.956;2023-04-24T10:48:41;14.10;;;8.70;;
67986;SDS011;54767;53.800;15.956;2023-04-24T10:51:12;14.70;;;9.20;;
67986;SDS011;54767;53.800;15.956;2023-04-24T10:53:40;14.80;;;9.40;;
67986;SDS011;54767;53.800;15.956;2023-04-24T10:56:07;14.10;;;9.60;;
67986;SDS011;54767;53.800;15.956;2023-04-24T11:01:06;12.50;;;9.10;;
67986;SDS011;54767;53.800;15.956;2023-04-24T11:03:34;11.00;;;8.50;;
67986;SDS011;54767;53.800;15.956;2023-04-24T11:06:06;13.40;;;9.70;;
67986;SDS011;54767;53.800;15.956;2023-04-24T11:09:09;12.50;;;9.00;;
67986;SDS011;54767;53.800;15.956;2023-04-24T11:11:46;11.10;;;8.60;;
67986;SDS011;54767;53.800;15.956;2023-04-24T11:14:16;11.00;;;8.60;;
67986;SDS011;54767;53.800;15.956;2023-04-24T11:16:53;12.70;;;9.10;;
67986;SDS011;54767;53.800;15.956;2023-04-24T11:19:25;9.30;;;7.80;;
67986;SDS011;54767;53.800;15.956;2023-04-24T11:21:57;9.90;;;7.80;;
67986;SDS011;54767;53.800;15.956;2023-04-24T11:29:43;8.20;;;7.00;;
67986;SDS011;54767;53.800;15.956;2023-04-24T11:37:29;9.60;;;7.00;;
67986;SDS011;54767;53.800;15.956;2023-04-24T11:40:01;8.00;;;6.90;;
67986;SDS011;54767;53.800;15.956;2023-04-24T11:42:33;11.20;;;6.60;;
67986;SDS011;54767;53.800;15.956;2023-04-24T11:45:07;9.40;;;6.70;;
67986;SDS011;54767;53.800;15.956;2023-04-24T11:47:34;10.60;;;7.10;;
67986;SDS011;54767;53.800;15.956;2023-04-24T11:50:02;7.30;;;6.30;;
67986;SDS011;54767;53.800;15.956;2023-04-24T11:52:30;8.10;;;6.70;;
67986;SDS011;54767;53.800;15.956;2023-04-24T11:57:42;8.60;;;6.10;;
67986;SDS011;54767;53.800;15.956;2023-04-24T12:00:27;7.10;;;5.60;;
67986;SDS011;54767;53.800;15.956;2023-04-24T12:05:32;6.20;;;5.60;;
67986;SDS011;54767;53.800;15.956;2023-04-24T12:08:02;6.60;;;5.70;;
67986;SDS011;54767;53.800;15.956;2023-04-24T12:10:29;8.10;;;6.00;;
67986;SDS011;54767;53.800;15.956;2023-04-24T12:12:57;6.80;;;4.60;;
67986;SDS011;54767;53.800;15.956;2023-04-24T12:15:25;5.00;;;4.00;;
67986;SDS011;54767;53.800;15.956;2023-04-24T12:17:53;6.90;;;4.40;;
67986;SDS011;54767;53.800;15.956;2023-04-24T12:20:29;5.00;;;4.10;;
67986;SDS011;54767;53.800;15.956;2023-04-24T12:22:59;5.60;;;4.50;;
67986;SDS011;54767;53.800;15.956;2023-04-24T12:28:19;5.30;;;3.70;;
67986;SDS011;54767;53.800;15.956;2023-04-24T12:30:47;4.00;;;3.50;;
67986;SDS011;54767;53.800;15.956;2023-04-24T12:33:24;4.60;;;3.30;;
67986;SDS011;54767;53.800;15.956;2023-04-24T12:35:51;3.50;;;3.20;;
67986;SDS011;54767;53.800;15.956;2023-04-24T12:38:23;3.80;;;3.40;;
67986;SDS011;54767;53.800;15.956;2023-04-24T12:41:13;3.80;;;3.50;;
67986;SDS011;54767;53.800;15.956;2023-04-24T12:43:51;5.80;;;4.00;;
67986;SDS011;54767;53.800;15.956;2023-04-24T12:46:44;4.20;;;3.80;;
67986;SDS011;54767;53.800;15.956;2023-04-24T12:50:02;5.70;;;4.40;;
67986;SDS011;54767;53.800;15.956;2023-04-24T12:52:45;8.40;;;4.40;;
67986;SDS011;54767;53.800;15.956;2023-04-24T12:55:12;9.40;;;4.30;;
67986;SDS011;54767;53.800;15.956;2023-04-24T12:57:39;6.70;;;4.30;;
67986;SDS011;54767;53.800;15.956;2023-04-24T13:00:07;5.50;;;4.00;;
67986;SDS011;54767;53.800;15.956;2023-04-24T13:02:36;9.50;;;4.40;;
67986;SDS011;54767;53.800;15.956;2023-04-24T13:05:03;5.50;;;4.50;;
67986;SDS011;54767;53.800;15.956;2023-04-24T13:07:34;5.40;;;4.20;;
67986;SDS011;54767;53.800;15.956;2023-04-24T13:10:00;4.30;;;3.90;;
67986;SDS011;54767;53.800;15.956;2023-04-24T13:12:27;5.90;;;4.30;;
67986;SDS011;54767;53.800;15.956;2023-04-24T13:14:57;5.00;;;3.90;;
67986;SDS011;54767;53.800;15.956;2023-04-24T13:17:24;5.00;;;3.90;;
67986;SDS011;54767;53.800;15.956;2023-04-24T13:19:51;5.70;;;4.30;;
67986;SDS011;54767;53.800;15.956;2023-04-24T13:22:21;5.90;;;4.00;;
67986;SDS011;54767;53.800;15.956;2023-04-24T13:24:48;4.40;;;4.00;;
67986;SDS011;54767;53.800;15.956;2023-04-24T13:27:16;6.00;;;4.40;;
67986;SDS011;54767;53.800;15.956;2023-04-24T13:29:44;7.50;;;4.10;;
67986;SDS011;54767;53.800;15.956;2023-04-24T13:32:13;5.10;;;4.20;;
67986;SDS011;54767;53.800;15.956;2023-04-24T13:34:44;5.00;;;4.30;;
67986;SDS011;54767;53.800;15.956;2023-04-24T13:37:11;5.20;;;4.50;;
67986;SDS011;54767;53.800;15.956;2023-04-24T13:39:38;4.80;;;4.10;;
67986;SDS011;54767;53.800;15.956;2023-04-24T13:42:10;5.10;;;4.20;;
67986;SDS011;54767;53.800;15.956;2023-04-24T13:44:37;5.00;;;3.90;;
67986;SDS011;54767;53.800;15.956;2023-04-24T13:47:04;5.70;;;4.30;;
67986;SDS011;54767;53.800;15.956;2023-04-24T13:49:32;7.70;;;4.20;;
67986;SDS011;54767;53.800;15.956;2023-04-24T13:51:59;5.00;;;4.40;;
67986;SDS011;54767;53.800;15.956;2023-04-24T13:54:26;5.00;;;4.30;;
67986;SDS011;54767;53.800;15.956;2023-04-24T13:56:53;4.40;;;4.00;;
67986;SDS011;54767;53.800;15.956;2023-04-24T13:59:20;4.70;;;4.30;;
67986;SDS011;54767;53.800;15.956;2023-04-24T14:01:50;4.30;;;4.00;;
67986;SDS011;54767;53.800;15.956;2023-04-24T14:04:17;4.90;;;4.40;;
67986;SDS011;54767;53.800;15.956;2023-04-24T14:06:44;4.70;;;4.10;;
67986;SDS011;54767;53.800;15.956;2023-04-24T14:09:11;5.30;;;4.20;;
67986;SDS011;54767;53.800;15.956;2023-04-24T14:11:38;5.20;;;4.10;;
67986;SDS011;54767;53.800;15.956;2023-04-24T14:14:07;4.60;;;4.10;;
67986;SDS011;54767;53.800;15.956;2023-04-24T14:16:34;4.00;;;3.60;;
67986;SDS011;54767;53.800;15.956;2023-04-24T14:19:01;4.70;;;3.50;;
67986;SDS011;54767;53.800;15.956;2023-04-24T14:21:28;5.50;;;3.50;;
67986;SDS011;54767;53.800;15.956;2023-04-24T14:23:55;3.70;;;3.30;;
67986;SDS011;54767;53.800;15.956;2023-04-24T14:26:22;3.90;;;3.60;;
67986;SDS011;54767;53.800;15.956;2023-04-24T14:28:49;5.60;;;3.80;;
67986;SDS011;54767;53.800;15.956;2023-04-24T14:31:18;6.50;;;4.70;;
67986;SDS011;54767;53.800;15.956;2023-04-24T14:33:45;5.70;;;5.20;;
67986;SDS011;54767;53.800;15.956;2023-04-24T14:36:12;7.30;;;4.50;;
67986;SDS011;54767;53.800;15.956;2023-04-24T14:38:39;4.90;;;3.90;;
67986;SDS011;54767;53.800;15.956;2023-04-24T14:41:06;4.70;;;4.20;;
67986;SDS011;54767;53.800;15.956;2023-04-24T14:43:40;4.90;;;4.00;;
67986;SDS011;54767;53.800;15.956;2023-04-24T14:46:07;4.50;;;4.10;;
67986;SDS011;54767;53.800;15.956;2023-04-24T14:48:33;5.40;;;3.70;;
67986;SDS011;54767;53.800;15.956;2023-04-24T14:51:00;3.80;;;3.50;;
67986;SDS011;54767;53.800;15.956;2023-04-24T14:53:27;4.10;;;3.70;;
67986;SDS011;54767;53.800;15.956;2023-04-24T14:55:55;4.00;;;3.70;;
67986;SDS011;54767;53.800;15.956;2023-04-24T14:58:22;4.00;;;3.70;;
67986;SDS011;54767;53.800;15.956;2023-04-24T15:00:49;4.10;;;3.40;;
67986;SDS011;54767;53.800;15.956;2023-04-24T15:03:18;3.80;;;3.50;;
67986;SDS011;54767;53.800;15.956;2023-04-24T15:05:45;4.10;;;3.70;;
67986;SDS011;54767;53.800;15.956;2023-04-24T15:08:12;4.20;;;3.60;;
67986;SDS011;54767;53.800;15.956;2023-04-24T15:10:39;5.30;;;4.50;;
67986;SDS011;54767;53.800;15.956;2023-04-24T15:13:06;7.10;;;5.00;;
67986;SDS011;54767;53.800;15.956;2023-04-24T15:15:33;5.20;;;4.60;;
67986;SDS011;54767;53.800;15.956;2023-04-24T15:18:01;5.60;;;3.90;;
67986;SDS011;54767;53.800;15.956;2023-04-24T15:20:28;4.80;;;3.90;;
67986;SDS011;54767;53.800;15.956;2023-04-24T15:22:55;4.80;;;3.60;;
67986;SDS011;54767;53.800;15.956;2023-04-24T15:25:22;4.20;;;3.60;;
67986;SDS011;54767;53.800;15.956;2023-04-24T15:27:48;3.80;;;3.40;;
67986;SDS011;54767;53.800;15.956;2023-04-24T15:30:15;3.40;;;2.80;;
67986;SDS011;54767;53.800;15.956;2023-04-24T15:32:42;3.60;;;3.30;;
67986;SDS011;54767;53.800;15.956;2023-04-24T15:35:09;4.30;;;3.20;;
67986;SDS011;54767;53.800;15.956;2023-04-24T15:37:37;3.30;;;3.00;;
67986;SDS011;54767;53.800;15.956;2023-04-24T15:40:05;4.30;;;3.40;;
67986;SDS011;54767;53.800;15.956;2023-04-24T15:42:33;3.70;;;3.20;;
67986;SDS011;54767;53.800;15.956;2023-04-24T15:45:00;3.50;;;3.10;;
67986;SDS011;54767;53.800;15.956;2023-04-24T15:47:27;3.30;;;2.60;;
67986;SDS011;54767;53.800;15.956;2023-04-24T15:49:54;4.20;;;3.40;;